createdAt,value
2018-09-28T00:02:02.978Z,9.60
2018-09-28T00:04:31.273Z,9.50
2018-09-28T00:06:59.592Z,9.60
2018-09-28T00:09:27.849Z,9.60
2018-09-28T00:11:56.123Z,9.70
2018-09-28T00:14:24.404Z,9.70
2018-09-28T00:16:52.781Z,9.60
2018-09-28T00:19:21.062Z,9.50
2018-09-28T00:21:49.329Z,9.50
2018-09-28T00:24:17.593Z,9.30
2018-09-28T00:26:45.871Z,9.30
2018-09-28T00:29:14.158Z,9.30
2018-09-28T00:31:43.535Z,9.20
2018-09-28T00:34:11.943Z,9.20
2018-09-28T00:36:40.221Z,9.20
2018-09-28T00:39:09.161Z,9.10
2018-09-28T00:41:37.419Z,9.10
2018-09-28T00:44:05.694Z,9.00
2018-09-28T00:46:34.129Z,9.00
2018-09-28T00:49:02.402Z,8.90
2018-09-28T00:51:30.713Z,8.90
2018-09-28T00:53:59.020Z,8.90
2018-09-28T00:56:27.322Z,8.80
2018-09-28T00:58:55.620Z,8.70
2018-09-28T01:01:23.925Z,8.60
2018-09-28T01:03:52.181Z,8.60
2018-09-28T01:06:20.498Z,8.50
2018-09-28T01:08:48.786Z,8.50
2018-09-28T01:11:17.092Z,8.50
2018-09-28T01:13:45.445Z,8.60
2018-09-28T01:16:13.702Z,8.50
2018-09-28T01:18:41.959Z,8.50
2018-09-28T01:21:10.497Z,8.60
2018-09-28T01:23:38.918Z,8.50
2018-09-28T01:26:07.173Z,8.40
2018-09-28T01:28:35.543Z,8.30
2018-09-28T01:31:03.970Z,8.40
2018-09-28T01:33:32.229Z,8.30
2018-09-28T01:36:00.525Z,9.10
2018-09-28T01:38:28.789Z,8.40
2018-09-28T01:40:57.042Z,8.30
2018-09-28T01:43:25.291Z,8.40
2018-09-28T01:45:53.616Z,8.40
2018-09-28T01:48:21.939Z,8.30
2018-09-28T01:50:50.313Z,8.40
2018-09-28T01:53:18.594Z,8.40
2018-09-28T01:55:46.921Z,8.30
2018-09-28T01:58:15.402Z,8.40
2018-09-28T02:00:43.676Z,8.40
2018-09-28T02:03:11.921Z,8.40
2018-09-28T02:05:40.294Z,8.30
2018-09-28T02:08:08.566Z,8.30
2018-09-28T02:10:36.859Z,8.20
2018-09-28T02:13:05.616Z,8.10
2018-09-28T02:15:33.943Z,8.20
2018-09-28T02:18:02.194Z,8.20
2018-09-28T02:20:30.449Z,8.20
2018-09-28T02:22:58.742Z,8.20
2018-09-28T02:25:26.993Z,8.00
2018-09-28T02:27:55.297Z,8.10
2018-09-28T02:30:23.563Z,8.10
2018-09-28T02:32:51.825Z,8.00
2018-09-28T02:35:20.102Z,7.90
2018-09-28T02:37:48.512Z,8.00
2018-09-28T02:40:16.769Z,7.90
2018-09-28T02:42:45.876Z,7.80
2018-09-28T02:45:14.140Z,7.80
2018-09-28T02:47:42.661Z,7.90
2018-09-28T02:50:11.093Z,7.90
2018-09-28T02:52:39.674Z,7.80
2018-09-28T02:55:07.939Z,7.80
2018-09-28T02:57:36.364Z,7.80
2018-09-28T03:00:04.819Z,8.00
2018-09-28T03:02:33.377Z,8.20
2018-09-28T03:05:01.658Z,8.30
2018-09-28T03:07:30.004Z,8.40
2018-09-28T03:09:58.339Z,8.40
2018-09-28T03:12:26.702Z,8.50
2018-09-28T03:14:54.946Z,8.70
2018-09-28T03:17:23.218Z,8.80
2018-09-28T03:19:51.493Z,8.90
2018-09-28T03:22:19.749Z,9.10
2018-09-28T03:24:48.027Z,9.30
2018-09-28T03:27:16.303Z,9.40
2018-09-28T03:29:44.588Z,9.40
2018-09-28T03:32:12.895Z,9.50
2018-09-28T03:34:41.200Z,9.60
2018-09-28T03:37:09.669Z,9.60
2018-09-28T03:39:37.950Z,9.70
2018-09-28T03:42:06.235Z,9.70
2018-09-28T03:44:34.496Z,9.70
2018-09-28T03:47:02.954Z,9.70
2018-09-28T03:49:31.229Z,9.60
2018-09-28T03:51:59.530Z,9.70
2018-09-28T03:54:27.958Z,9.80
2018-09-28T03:56:56.243Z,9.90
2018-09-28T03:59:24.776Z,9.90
2018-09-28T04:01:53.040Z,9.90
2018-09-28T04:04:21.322Z,10.00
2018-09-28T04:06:49.618Z,10.10
2018-09-28T04:09:17.881Z,10.10
2018-09-28T04:11:46.206Z,10.20
2018-09-28T04:14:14.556Z,10.20
2018-09-28T04:16:42.825Z,10.30
2018-09-28T04:19:11.151Z,10.30
2018-09-28T04:21:39.611Z,10.40
2018-09-28T04:24:07.934Z,10.40
2018-09-28T04:26:36.470Z,10.40
2018-09-28T04:29:04.845Z,10.40
2018-09-28T04:31:33.109Z,10.40
2018-09-28T04:34:01.762Z,10.50
2018-09-28T04:36:30.042Z,10.50
2018-09-28T04:38:58.337Z,10.50
2018-09-28T04:41:26.696Z,10.60
2018-09-28T04:43:55.130Z,10.60
2018-09-28T04:46:23.916Z,10.60
2018-09-28T04:48:52.311Z,10.60
2018-09-28T04:51:20.659Z,10.70
2018-09-28T04:53:48.962Z,10.70
2018-09-28T04:56:17.241Z,10.70
2018-09-28T04:58:45.618Z,10.70
2018-09-28T05:01:13.931Z,10.70
2018-09-28T05:03:42.311Z,10.70
2018-09-28T05:06:10.709Z,10.80
2018-09-28T05:08:39.146Z,10.80
2018-09-28T05:11:07.655Z,10.80
2018-09-28T05:13:36.118Z,10.80
2018-09-28T05:16:04.543Z,10.80
2018-09-28T05:18:32.819Z,10.80
2018-09-28T05:21:01.485Z,10.80
2018-09-28T05:23:29.749Z,10.80
2018-09-28T05:25:58.066Z,10.80
2018-09-28T05:28:26.372Z,10.80
2018-09-28T05:30:54.909Z,10.80
2018-09-28T05:33:23.205Z,10.80
2018-09-28T05:35:51.534Z,10.80
2018-09-28T05:38:20.002Z,10.90
2018-09-28T05:40:48.484Z,10.90
2018-09-28T05:43:19.764Z,11.00
2018-09-28T05:45:51.024Z,11.00
2018-09-28T05:48:19.317Z,11.00
2018-09-28T05:50:47.565Z,11.00
2018-09-28T05:53:15.901Z,11.00
2018-09-28T05:55:44.205Z,11.00
2018-09-28T05:58:17.947Z,11.00
2018-09-28T06:00:51.714Z,11.00
2018-09-28T06:03:21.942Z,11.10
2018-09-28T06:05:55.713Z,11.10
2018-09-28T06:08:24.028Z,11.10
2018-09-28T06:10:52.282Z,11.10
2018-09-28T06:13:21.665Z,11.20
2018-09-28T06:15:49.965Z,11.20
2018-09-28T06:18:18.333Z,11.20
2018-09-28T06:20:47.466Z,11.20
2018-09-28T06:23:15.753Z,11.30
2018-09-28T06:25:44.097Z,11.40
2018-09-28T06:28:12.331Z,11.50
2018-09-28T06:30:40.737Z,11.50
2018-09-28T06:33:10.093Z,11.60
2018-09-28T06:35:38.478Z,11.60
2018-09-28T06:38:06.853Z,11.60
2018-09-28T06:40:35.119Z,11.70
2018-09-28T06:43:03.486Z,11.70
2018-09-28T06:45:32.186Z,11.70
2018-09-28T06:48:00.509Z,11.80
2018-09-28T06:50:28.779Z,11.90
2018-09-28T06:52:57.042Z,12.00
2018-09-28T06:55:25.419Z,12.00
2018-09-28T06:57:53.699Z,12.10
2018-09-28T07:00:22.086Z,12.10
2018-09-28T07:02:50.305Z,12.20
2018-09-28T07:05:19.065Z,12.30
2018-09-28T07:07:47.346Z,12.30
2018-09-28T07:10:15.652Z,12.30
2018-09-28T07:12:44.268Z,12.40
2018-09-28T07:15:12.565Z,12.40
2018-09-28T07:17:40.866Z,12.40
2018-09-28T07:20:09.286Z,12.40
2018-09-28T07:22:37.664Z,12.50
2018-09-28T07:25:06.079Z,12.50
2018-09-28T07:27:34.420Z,12.60
2018-09-28T07:32:31.157Z,12.70
2018-09-28T07:35:00.087Z,12.80
2018-09-28T07:37:28.405Z,12.90
2018-09-28T07:39:56.764Z,12.90
2018-09-28T07:42:25.171Z,13.00
2018-09-28T07:44:53.447Z,13.10
2018-09-28T07:47:21.864Z,13.10
2018-09-28T07:49:50.251Z,13.10
2018-09-28T07:52:18.662Z,13.10
2018-09-28T07:54:46.940Z,13.10
2018-09-28T07:57:15.221Z,13.20
2018-09-28T07:59:43.600Z,13.20
2018-09-28T08:02:11.881Z,13.30
2018-09-28T08:04:40.201Z,13.30
2018-09-28T08:07:08.678Z,13.30
2018-09-28T08:09:36.950Z,13.30
2018-09-28T08:12:05.213Z,13.40
2018-09-28T08:14:33.482Z,13.30
2018-09-28T08:17:01.739Z,13.30
2018-09-28T08:19:30.114Z,13.40
2018-09-28T08:21:58.456Z,13.30
2018-09-28T08:24:26.746Z,13.30
2018-09-28T08:26:55.022Z,13.30
2018-09-28T08:29:23.362Z,13.20
2018-09-28T08:31:51.673Z,13.20
2018-09-28T08:34:19.974Z,13.10
2018-09-28T08:36:48.339Z,13.20
2018-09-28T08:39:16.518Z,13.10
2018-09-28T08:41:44.875Z,13.00
2018-09-28T08:44:13.123Z,12.90
2018-09-28T08:46:45.089Z,12.80
2018-09-28T08:49:13.435Z,12.60
2018-09-28T08:51:41.674Z,12.60
2018-09-28T08:54:09.950Z,12.40
2018-09-28T08:56:38.294Z,12.30
2018-09-28T08:59:06.565Z,12.30
2018-09-28T09:01:34.873Z,12.30
2018-09-28T09:04:03.174Z,12.40
2018-09-28T09:06:31.440Z,12.40
2018-09-28T09:08:59.848Z,12.40
2018-09-28T09:11:28.305Z,12.40
2018-09-28T09:13:56.695Z,12.50
2018-09-28T09:16:25.146Z,12.60
2018-09-28T09:18:53.454Z,12.50
2018-09-28T09:21:21.737Z,12.40
2018-09-28T09:23:50.187Z,12.40
2018-09-28T09:26:18.539Z,12.40
2018-09-28T09:28:46.814Z,12.30
2018-09-28T09:31:15.093Z,12.30
2018-09-28T09:33:43.346Z,12.20
2018-09-28T09:36:11.602Z,12.10
2018-09-28T09:38:40.071Z,12.00
2018-09-28T09:41:08.336Z,12.00
2018-09-28T09:43:36.601Z,11.90
2018-09-28T09:46:05.126Z,11.90
2018-09-28T09:48:33.418Z,11.90
2018-09-28T09:51:01.900Z,12.00
2018-09-28T09:53:30.204Z,12.00
2018-09-28T09:55:58.486Z,12.10
2018-09-28T09:58:26.762Z,12.20
2018-09-28T10:01:00.554Z,12.30
2018-09-28T10:03:34.390Z,12.30
2018-09-28T10:06:02.797Z,12.30
2018-09-28T10:08:31.186Z,12.30
2018-09-28T10:10:59.506Z,12.40
2018-09-28T10:13:27.901Z,12.40
2018-09-28T10:15:56.154Z,12.40
2018-09-28T10:18:24.433Z,12.40
2018-09-28T10:20:52.733Z,12.40
2018-09-28T10:23:21.019Z,12.50
2018-09-28T10:25:49.470Z,12.60
2018-09-28T10:28:18.003Z,12.60
2018-09-28T10:30:46.423Z,12.70
2018-09-28T10:33:15.809Z,12.80
2018-09-28T10:35:44.259Z,12.80
2018-09-28T10:38:12.673Z,12.90
2018-09-28T10:40:41.076Z,13.00
2018-09-28T10:43:09.243Z,13.10
2018-09-28T10:45:37.667Z,13.20
2018-09-28T10:48:05.958Z,13.20
2018-09-28T10:50:34.331Z,13.30
2018-09-28T10:53:02.672Z,13.40
2018-09-28T10:55:31.039Z,13.40
2018-09-28T10:57:59.331Z,13.50
2018-09-28T11:00:27.719Z,13.60
2018-09-28T11:02:56.033Z,13.70
2018-09-28T11:05:24.315Z,13.70
2018-09-28T11:07:52.597Z,13.80
2018-09-28T11:10:21.043Z,13.90
2018-09-28T11:12:49.306Z,13.90
2018-09-28T11:15:17.629Z,14.00
2018-09-28T11:17:46.003Z,14.10
2018-09-28T11:20:14.287Z,14.30
2018-09-28T11:22:52.607Z,14.50
2018-09-28T11:25:27.372Z,14.50
2018-09-28T11:27:55.647Z,14.40
2018-09-28T11:30:23.905Z,14.50
2018-09-28T11:32:52.287Z,14.50
2018-09-28T11:38:13.644Z,14.60
2018-09-28T11:40:41.930Z,14.70
2018-09-28T11:43:11.112Z,14.80
2018-09-28T11:45:39.572Z,14.90
2018-09-28T11:48:07.966Z,15.10
2018-09-28T11:50:36.221Z,15.30
2018-09-28T11:53:04.651Z,15.20
2018-09-28T11:55:32.904Z,15.20
2018-09-28T11:58:01.385Z,15.10
2018-09-28T12:00:29.789Z,15.20
2018-09-28T12:02:58.042Z,15.20
2018-09-28T12:05:26.350Z,15.30
2018-09-28T12:07:54.636Z,15.40
2018-09-28T12:10:22.955Z,15.40
2018-09-28T12:12:51.231Z,15.40
2018-09-28T12:15:19.602Z,15.50
2018-09-28T12:17:47.854Z,15.50
2018-09-28T12:20:16.131Z,15.50
2018-09-28T12:22:44.383Z,15.70
2018-09-28T12:25:12.694Z,15.80
2018-09-28T12:27:41.091Z,15.70
2018-09-28T12:30:09.500Z,15.70
2018-09-28T12:32:37.747Z,15.70
2018-09-28T12:35:06.127Z,15.60
2018-09-28T12:37:34.528Z,15.50
2018-09-28T12:40:02.856Z,15.40
2018-09-28T12:42:31.150Z,15.50
2018-09-28T12:44:59.427Z,15.60
2018-09-28T12:47:27.761Z,15.70
2018-09-28T12:49:56.035Z,15.90
2018-09-28T12:52:24.458Z,16.00
2018-09-28T12:54:52.808Z,16.00
2018-09-28T12:57:21.024Z,15.90
2018-09-28T12:59:49.362Z,15.80
2018-09-28T13:02:17.875Z,15.60
2018-09-28T13:04:46.096Z,15.50
2018-09-28T13:07:14.338Z,15.40
2018-09-28T13:09:42.667Z,15.30
2018-09-28T13:12:10.964Z,15.30
2018-09-28T13:14:39.369Z,15.20
2018-09-28T13:17:07.693Z,15.20
2018-09-28T13:19:36.042Z,15.30
2018-09-28T13:22:04.354Z,15.40
2018-09-28T13:24:32.766Z,15.40
2018-09-28T13:27:01.067Z,15.50
2018-09-28T13:29:29.350Z,15.40
2018-09-28T13:31:57.671Z,15.30
2018-09-28T13:34:26.057Z,15.20
2018-09-28T13:36:54.828Z,15.10
2018-09-28T13:39:23.312Z,15.00
2018-09-28T13:41:51.677Z,15.20
2018-09-28T13:44:20.015Z,15.40
2018-09-28T13:46:50.470Z,15.50
2018-09-28T13:49:18.643Z,15.50
2018-09-28T13:51:46.959Z,15.80
2018-09-28T13:54:15.330Z,16.00
2018-09-28T13:56:43.660Z,16.10
2018-09-28T13:59:12.146Z,16.30
2018-09-28T14:01:40.548Z,16.40
2018-09-28T14:04:08.939Z,16.50
2018-09-28T14:06:37.591Z,16.70
2018-09-28T14:09:07.974Z,16.80
2018-09-28T14:11:37.300Z,16.70
2018-09-28T14:14:05.678Z,16.70
2018-09-28T14:16:34.149Z,16.60
2018-09-28T14:19:05.030Z,16.50
2018-09-28T14:21:33.422Z,16.60
2018-09-28T14:24:01.712Z,16.50
2018-09-28T14:26:30.080Z,16.20
2018-09-28T14:28:58.395Z,16.10
2018-09-28T14:31:26.837Z,16.00
2018-09-28T14:33:55.215Z,15.80
2018-09-28T14:36:24.186Z,15.90
2018-09-28T14:38:52.471Z,16.00
2018-09-28T14:41:20.778Z,16.10
2018-09-28T14:43:49.055Z,16.20
2018-09-28T14:46:17.465Z,16.30
2018-09-28T14:48:45.975Z,16.40
2018-09-28T14:51:14.178Z,16.50
2018-09-28T14:53:42.582Z,16.60
2018-09-28T14:56:10.921Z,16.60
2018-09-28T14:58:39.284Z,16.20
2018-09-28T15:01:07.708Z,16.20
2018-09-28T15:03:35.927Z,16.00
2018-09-28T15:06:04.491Z,15.90
2018-09-28T15:08:32.843Z,15.90
2018-09-28T15:11:01.208Z,15.90
2018-09-28T15:13:29.697Z,16.00
2018-09-28T15:15:58.593Z,16.10
2018-09-28T15:18:26.982Z,16.00
2018-09-28T15:20:55.274Z,16.00
2018-09-28T15:23:23.607Z,16.00
2018-09-28T15:25:51.906Z,16.00
2018-09-28T15:28:20.204Z,15.90
2018-09-28T15:30:48.507Z,16.00
2018-09-28T15:33:16.793Z,15.90
2018-09-28T15:35:45.118Z,15.90
2018-09-28T15:38:13.501Z,15.80
2018-09-28T15:40:41.810Z,15.80
2018-09-28T15:43:10.075Z,15.70
2018-09-28T15:45:38.527Z,15.70
2018-09-28T15:48:06.883Z,15.50
2018-09-28T15:50:35.136Z,15.60
2018-09-28T15:53:03.358Z,15.60
2018-09-28T15:55:31.653Z,15.60
2018-09-28T15:57:59.997Z,15.50
2018-09-28T16:00:28.274Z,15.40
2018-09-28T16:02:56.543Z,15.30
2018-09-28T16:05:24.902Z,15.30
2018-09-28T16:07:53.145Z,15.30
2018-09-28T16:10:21.492Z,15.20
2018-09-28T16:12:49.794Z,15.10
2018-09-28T16:15:18.049Z,15.00
2018-09-28T16:17:46.336Z,15.00
2018-09-28T16:20:14.655Z,14.90
2018-09-28T16:22:43.000Z,14.90
2018-09-28T16:25:11.436Z,14.80
2018-09-28T16:27:39.741Z,14.80
2018-09-28T16:30:08.145Z,14.60
2018-09-28T16:32:37.273Z,14.60
2018-09-28T16:35:05.633Z,14.30
2018-09-28T16:37:35.070Z,14.30
2018-09-28T16:40:03.462Z,14.20
2018-09-28T16:42:31.737Z,14.00
2018-09-28T16:45:00.022Z,14.00
2018-09-28T16:47:28.475Z,14.00
2018-09-28T16:49:56.751Z,13.90
2018-09-28T16:52:25.106Z,13.80
2018-09-28T16:54:53.511Z,13.70
2018-09-28T16:57:21.869Z,13.70
2018-09-28T16:59:50.338Z,13.50
2018-09-28T17:02:18.690Z,13.50
2018-09-28T17:04:47.012Z,13.50
2018-09-28T17:07:15.674Z,13.40
2018-09-28T17:09:43.947Z,13.30
2018-09-28T17:12:12.294Z,13.20
2018-09-28T17:14:40.559Z,13.20
2018-09-28T17:17:08.899Z,13.10
2018-09-28T17:19:37.257Z,13.00
2018-09-28T17:22:06.244Z,13.00
2018-09-28T17:24:34.498Z,12.90
2018-09-28T17:27:03.121Z,12.80
2018-09-28T17:29:31.387Z,12.70
2018-09-28T17:31:59.649Z,12.60
2018-09-28T17:34:27.917Z,12.50
2018-09-28T17:36:56.298Z,12.40
2018-09-28T17:39:24.593Z,12.30
2018-09-28T17:41:53.187Z,12.30
2018-09-28T17:44:21.421Z,12.20
2018-09-28T17:46:49.747Z,12.10
2018-09-28T17:49:18.016Z,12.10
2018-09-28T17:51:46.346Z,12.00
2018-09-28T17:54:14.647Z,12.00
2018-09-28T17:56:42.950Z,12.00
2018-09-28T17:59:11.617Z,11.80
2018-09-28T18:01:39.945Z,11.80
2018-09-28T18:04:09.425Z,11.80
2018-09-28T18:06:37.758Z,11.70
2018-09-28T18:09:08.326Z,11.70
2018-09-28T18:11:36.605Z,11.70
2018-09-28T18:14:05.286Z,11.70
2018-09-28T18:16:33.509Z,11.60
2018-09-28T18:19:01.994Z,11.60
2018-09-28T18:21:30.346Z,11.60
2018-09-28T18:23:58.601Z,11.50
2018-09-28T18:26:26.881Z,11.60
2018-09-28T18:28:55.180Z,11.50
2018-09-28T18:31:23.480Z,11.50
2018-09-28T18:33:51.750Z,11.50
2018-09-28T18:36:20.639Z,11.40
2018-09-28T18:38:48.903Z,11.40
2018-09-28T18:41:17.282Z,11.30
2018-09-28T18:43:45.716Z,11.30
2018-09-28T18:46:14.094Z,11.30
2018-09-28T18:51:35.663Z,11.10
2018-09-28T18:54:04.490Z,11.00
2018-09-28T18:56:34.307Z,11.00
2018-09-28T18:59:02.742Z,10.90
2018-09-28T19:01:31.076Z,10.90
2018-09-28T19:03:59.431Z,10.80
2018-09-28T19:06:27.821Z,10.80
2018-09-28T19:08:56.348Z,10.60
2018-09-28T19:11:24.782Z,10.70
2018-09-28T19:13:53.278Z,10.60
2018-09-28T19:16:21.635Z,10.50
2018-09-28T19:18:50.285Z,10.60
2018-09-28T19:21:18.730Z,10.50
2018-09-28T19:23:47.155Z,10.60
2018-09-28T19:26:15.580Z,10.60
2018-09-28T19:28:43.940Z,10.50
2018-09-28T19:31:12.682Z,10.50
2018-09-28T19:33:41.098Z,10.50
2018-09-28T19:36:09.511Z,10.40
2018-09-28T19:38:38.916Z,10.30
2018-09-28T19:41:07.245Z,10.30
2018-09-28T19:43:35.619Z,10.20
2018-09-28T19:46:04.002Z,10.10
2018-09-28T19:48:32.335Z,10.10
2018-09-28T19:51:00.612Z,10.00
2018-09-28T19:53:28.882Z,10.00
2018-09-28T19:55:57.247Z,10.00
2018-09-28T19:58:25.626Z,9.90
2018-09-28T20:00:53.922Z,9.90
2018-09-28T20:03:22.299Z,9.90
2018-09-28T20:05:50.643Z,9.90
2018-09-28T20:08:19.090Z,9.90
2018-09-28T20:10:47.415Z,10.00
2018-09-28T20:13:15.980Z,10.10
2018-09-28T20:15:44.677Z,10.10
2018-09-28T20:18:13.125Z,10.10
2018-09-28T20:20:42.526Z,10.10
2018-09-28T20:23:11.202Z,10.10
2018-09-28T20:25:41.604Z,10.10
2018-09-28T20:28:13.959Z,10.10
2018-09-28T20:30:43.711Z,10.00
2018-09-28T20:33:12.162Z,10.00
2018-09-28T20:35:40.470Z,9.90
2018-09-28T20:38:08.900Z,9.90
2018-09-28T20:40:38.228Z,9.90
2018-09-28T20:43:06.698Z,9.90
2018-09-28T20:45:36.657Z,9.80
2018-09-28T20:48:05.098Z,9.70
2018-09-28T20:50:35.591Z,9.70
2018-09-28T20:53:03.982Z,9.70
2018-09-28T20:55:32.448Z,9.60
2018-09-28T20:58:00.818Z,9.60
2018-09-28T21:00:29.594Z,9.60
2018-09-28T21:02:57.967Z,9.40
2018-09-28T21:05:26.370Z,9.40
2018-09-28T21:07:54.722Z,9.30
2018-09-28T21:10:23.192Z,9.30
2018-09-28T21:12:52.428Z,9.20
2018-09-28T21:15:20.872Z,9.20
2018-09-28T21:17:49.297Z,9.10
2018-09-28T21:20:17.737Z,9.00
2018-09-28T21:22:46.178Z,8.90
2018-09-28T21:25:14.495Z,8.90
2018-09-28T21:27:42.869Z,8.90
2018-09-28T21:30:11.440Z,8.90
2018-09-28T21:32:39.784Z,8.90
2018-09-28T21:35:08.405Z,8.90
2018-09-28T21:37:36.805Z,8.90
2018-09-28T21:40:05.777Z,8.90
2018-09-28T21:44:03.601Z,8.90
2018-09-28T21:46:32.823Z,8.90
2018-09-28T21:49:01.139Z,8.80
2018-09-28T21:51:29.465Z,8.80
2018-09-28T21:53:57.838Z,8.80
2018-09-28T21:56:26.116Z,8.80
2018-09-28T21:58:54.550Z,8.80
2018-09-28T22:01:23.004Z,8.80
2018-09-28T22:03:51.392Z,8.80
2018-09-28T22:06:19.667Z,8.80
2018-09-28T22:08:47.942Z,8.80
2018-09-28T22:11:16.379Z,8.80
2018-09-28T22:13:45.773Z,8.70
2018-09-28T22:16:13.981Z,8.60
2018-09-28T22:18:42.282Z,8.50
2018-09-28T22:21:10.545Z,8.40
2018-09-28T22:23:38.817Z,8.50
2018-09-28T22:26:07.119Z,8.40
2018-09-28T22:28:35.386Z,8.30
2018-09-28T22:31:03.820Z,8.30
2018-09-28T22:33:32.112Z,8.20
2018-09-28T22:36:00.420Z,8.10
2018-09-28T22:38:28.826Z,8.00
2018-09-28T22:40:57.085Z,7.90
2018-09-28T22:43:25.444Z,7.80
2018-09-28T22:45:53.733Z,7.70
2018-09-28T22:48:22.102Z,7.80
2018-09-28T22:50:50.481Z,7.80
2018-09-28T22:53:19.562Z,7.70
2018-09-28T22:55:48.095Z,7.50
2018-09-28T22:58:16.374Z,7.40
2018-09-28T23:00:44.705Z,7.30
2018-09-28T23:03:13.277Z,7.20
2018-09-28T23:05:41.646Z,7.10
2018-09-28T23:08:09.952Z,7.10
2018-09-28T23:10:38.314Z,7.00
2018-09-28T23:13:06.735Z,7.00
2018-09-28T23:15:35.021Z,6.90
2018-09-28T23:18:03.991Z,6.70
2018-09-28T23:20:32.335Z,6.60
2018-09-28T23:23:00.885Z,6.60
2018-09-28T23:25:29.148Z,6.60
2018-09-28T23:27:57.433Z,6.50
2018-09-28T23:30:25.696Z,6.40
2018-09-28T23:32:54.381Z,6.30
2018-09-28T23:35:22.656Z,6.30
2018-09-28T23:37:51.021Z,6.30
2018-09-28T23:40:19.444Z,6.40
2018-09-28T23:42:47.705Z,6.30
2018-09-28T23:45:16.193Z,6.30
2018-09-28T23:47:44.563Z,6.30
2018-09-28T23:50:12.738Z,6.10
2018-09-28T23:52:41.031Z,6.00
2018-09-28T23:55:09.311Z,6.00
2018-09-28T23:57:37.597Z,6.00
